sensor_id;sensor_type;location;lat;lon;timestamp;temperature;humidity
7894;DHT22;51343;51.396;6.656;2022-08-21T00:57:34;15.90;1.00
7894;DHT22;51343;51.396;6.656;2022-08-21T01:00:04;15.80;1.00
7894;DHT22;51343;51.396;6.656;2022-08-21T01:02:31;15.80;1.00
7894;DHT22;51343;51.396;6.656;2022-08-21T01:04:58;15.80;1.00
7894;DHT22;51343;51.396;6.656;2022-08-21T01:07:26;15.80;99.90
7894;DHT22;51343;51.396;6.656;2022-08-21T01:09:53;15.70;29.10
7894;DHT22;51343;51.396;6.656;2022-08-21T01:12:19;15.60;99.90
7894;DHT22;51343;51.396;6.656;2022-08-21T01:14:47;15.60;1.00
7894;DHT22;51343;51.396;6.656;2022-08-21T01:17:14;15.50;1.00
7894;DHT22;51343;51.396;6.656;2022-08-21T01:19:42;15.50;1.00
7894;DHT22;51343;51.396;6.656;2022-08-21T01:22:10;15.50;41.90
7894;DHT22;51343;51.396;6.656;2022-08-21T01:24:37;15.40;99.90
7894;DHT22;51343;51.396;6.656;2022-08-21T01:27:04;15.30;1.00
7894;DHT22;51343;51.396;6.656;2022-08-21T01:29:33;15.30;1.00
7894;DHT22;51343;51.396;6.656;2022-08-21T01:32:03;15.30;1.00
7894;DHT22;51343;51.396;6.656;2022-08-21T01:34:30;15.30;99.90
7894;DHT22;51343;51.396;6.656;2022-08-21T01:36:57;15.20;99.90
7894;DHT22;51343;51.396;6.656;2022-08-21T01:39:25;15.10;1.00
7894;DHT22;51343;51.396;6.656;2022-08-21T01:41:52;15.10;1.00
7894;DHT22;51343;51.396;6.656;2022-08-21T01:44:20;15.10;1.00
7894;DHT22;51343;51.396;6.656;2022-08-21T01:46:47;15.00;1.00
7894;DHT22;51343;51.396;6.656;2022-08-21T01:49:13;15.00;99.90
7894;DHT22;51343;51.396;6.656;2022-08-21T01:51:41;15.00;1.00
7894;DHT22;51343;51.396;6.656;2022-08-21T01:54:08;15.00;1.00
7894;DHT22;51343;51.396;6.656;2022-08-21T01:56:37;15.00;99.90
7894;DHT22;51343;51.396;6.656;2022-08-21T01:59:04;15.00;58.90
7894;DHT22;51343;51.396;6.656;2022-08-21T02:01:31;15.00;1.00
7894;DHT22;51343;51.396;6.656;2022-08-21T02:03:57;15.00;1.00
7894;DHT22;51343;51.396;6.656;2022-08-21T02:06:25;15.00;1.00
7894;DHT22;51343;51.396;6.656;2022-08-21T02:08:52;14.90;1.00
7894;DHT22;51343;51.396;6.656;2022-08-21T02:11:19;14.90;52.40
7894;DHT22;51343;51.396;6.656;2022-08-21T02:13:47;14.90;1.00
7894;DHT22;51343;51.396;6.656;2022-08-21T02:16:14;14.90;1.00
7894;DHT22;51343;51.396;6.656;2022-08-21T02:18:41;14.90;1.00
7894;DHT22;51343;51.396;6.656;2022-08-21T02:21:08;14.90;99.90
7894;DHT22;51343;51.396;6.656;2022-08-21T02:23:34;14.90;1.00
7894;DHT22;51343;51.396;6.656;2022-08-21T02:26:10;14.90;99.90
7894;DHT22;51343;51.396;6.656;2022-08-21T02:28:37;14.90;1.00
7894;DHT22;51343;51.396;6.656;2022-08-21T02:31:06;14.90;1.00
7894;DHT22;51343;51.396;6.656;2022-08-21T02:33:32;14.90;99.90
7894;DHT22;51343;51.396;6.656;2022-08-21T02:35:59;14.90;1.00
7894;DHT22;51343;51.396;6.656;2022-08-21T02:38:27;14.90;99.90
7894;DHT22;51343;51.396;6.656;2022-08-21T02:40:54;14.90;1.00
7894;DHT22;51343;51.396;6.656;2022-08-21T02:43:22;14.90;99.90
7894;DHT22;51343;51.396;6.656;2022-08-21T02:45:50;14.90;1.00
7894;DHT22;51343;51.396;6.656;2022-08-21T02:48:19;14.80;1.00
7894;DHT22;51343;51.396;6.656;2022-08-21T02:50:48;14.80;1.00
7894;DHT22;51343;51.396;6.656;2022-08-21T02:53:17;14.80;1.00
7894;DHT22;51343;51.396;6.656;2022-08-21T02:55:44;14.70;46.10
7894;DHT22;51343;51.396;6.656;2022-08-21T02:58:12;14.70;1.00
7894;DHT22;51343;51.396;6.656;2022-08-21T03:00:39;14.70;99.90
7894;DHT22;51343;51.396;6.656;2022-08-21T03:03:06;14.70;1.00
7894;DHT22;51343;51.396;6.656;2022-08-21T03:05:37;14.70;46.80
7894;DHT22;51343;51.396;6.656;2022-08-21T03:08:05;14.60;1.00
7894;DHT22;51343;51.396;6.656;2022-08-21T03:10:35;14.70;99.90
7894;DHT22;51343;51.396;6.656;2022-08-21T03:13:02;14.70;1.00
7894;DHT22;51343;51.396;6.656;2022-08-21T03:15:29;14.70;99.90
7894;DHT22;51343;51.396;6.656;2022-08-21T03:17:56;14.70;99.90
7894;DHT22;51343;51.396;6.656;2022-08-21T03:20:24;14.70;99.90
7894;DHT22;51343;51.396;6.656;2022-08-21T03:22:52;14.70;1.00
7894;DHT22;51343;51.396;6.656;2022-08-21T03:25:20;14.80;1.00
7894;DHT22;51343;51.396;6.656;2022-08-21T03:27:47;14.80;1.00
7894;DHT22;51343;51.396;6.656;2022-08-21T03:30:14;14.90;99.90
7894;DHT22;51343;51.396;6.656;2022-08-21T03:32:41;14.90;1.00
7894;DHT22;51343;51.396;6.656;2022-08-21T03:35:08;14.90;1.00
7894;DHT22;51343;51.396;6.656;2022-08-21T03:37:35;14.90;1.00
7894;DHT22;51343;51.396;6.656;2022-08-21T03:40:04;14.80;99.90
7894;DHT22;51343;51.396;6.656;2022-08-21T03:42:31;14.80;1.00
7894;DHT22;51343;51.396;6.656;2022-08-21T03:44:57;14.80;1.00
7894;DHT22;51343;51.396;6.656;2022-08-21T03:47:24;14.70;1.00
7894;DHT22;51343;51.396;6.656;2022-08-21T03:49:51;14.70;1.00
7894;DHT22;51343;51.396;6.656;2022-08-21T03:52:19;14.60;99.90
7894;DHT22;51343;51.396;6.656;2022-08-21T03:54:46;14.60;1.00
7894;DHT22;51343;51.396;6.656;2022-08-21T03:57:14;14.60;1.00
7894;DHT22;51343;51.396;6.656;2022-08-21T03:59:40;14.50;99.90
7894;DHT22;51343;51.396;6.656;2022-08-21T04:02:08;14.50;99.90
7894;DHT22;51343;51.396;6.656;2022-08-21T04:04:35;14.50;99.90
7894;DHT22;51343;51.396;6.656;2022-08-21T04:07:03;14.40;1.00
7894;DHT22;51343;51.396;6.656;2022-08-21T04:09:29;14.40;1.00
7894;DHT22;51343;51.396;6.656;2022-08-21T04:11:56;14.40;99.90
7894;DHT22;51343;51.396;6.656;2022-08-21T04:14:25;14.40;1.00
7894;DHT22;51343;51.396;6.656;2022-08-21T04:16:52;14.40;99.90
7894;DHT22;51343;51.396;6.656;2022-08-21T04:19:19;14.40;24.60
7894;DHT22;51343;51.396;6.656;2022-08-21T04:21:45;14.40;99.90
7894;DHT22;51343;51.396;6.656;2022-08-21T04:24:12;14.40;1.00
7894;DHT22;51343;51.396;6.656;2022-08-21T04:26:39;14.40;1.00
7894;DHT22;51343;51.396;6.656;2022-08-21T04:29:05;14.50;99.90
7894;DHT22;51343;51.396;6.656;2022-08-21T04:31:34;14.50;99.90
7894;DHT22;51343;51.396;6.656;2022-08-21T04:34:02;14.50;1.00
7894;DHT22;51343;51.396;6.656;2022-08-21T04:36:30;14.50;1.00
7894;DHT22;51343;51.396;6.656;2022-08-21T04:38:56;14.60;1.00
7894;DHT22;51343;51.396;6.656;2022-08-21T04:41:23;14.60;1.00
7894;DHT22;51343;51.396;6.656;2022-08-21T04:43:50;14.60;1.00
7894;DHT22;51343;51.396;6.656;2022-08-21T04:46:17;14.60;1.00
7894;DHT22;51343;51.396;6.656;2022-08-21T04:48:45;14.70;1.00
7894;DHT22;51343;51.396;6.656;2022-08-21T04:51:13;14.60;99.90
7894;DHT22;51343;51.396;6.656;2022-08-21T04:53:43;14.70;1.00
7894;DHT22;51343;51.396;6.656;2022-08-21T04:56:11;14.70;99.90
7894;DHT22;51343;51.396;6.656;2022-08-21T04:58:39;14.60;1.00
7894;DHT22;51343;51.396;6.656;2022-08-21T05:01:08;14.60;92.40
7894;DHT22;51343;51.396;6.656;2022-08-21T05:03:36;14.70;37.90
7894;DHT22;51343;51.396;6.656;2022-08-21T05:06:06;14.70;1.00
7894;DHT22;51343;51.396;6.656;2022-08-21T05:08:33;14.80;1.00
7894;DHT22;51343;51.396;6.656;2022-08-21T05:11:00;14.80;99.90
7894;DHT22;51343;51.396;6.656;2022-08-21T05:13:28;14.90;1.00
7894;DHT22;51343;51.396;6.656;2022-08-21T05:15:55;15.00;99.90
7894;DHT22;51343;51.396;6.656;2022-08-21T05:18:22;15.10;99.90
7894;DHT22;51343;51.396;6.656;2022-08-21T05:20:49;15.10;99.90
7894;DHT22;51343;51.396;6.656;2022-08-21T05:23:17;15.20;1.00
7894;DHT22;51343;51.396;6.656;2022-08-21T05:25:44;15.30;1.00
7894;DHT22;51343;51.396;6.656;2022-08-21T05:28:10;15.40;99.90
7894;DHT22;51343;51.396;6.656;2022-08-21T05:30:38;15.40;99.90
7894;DHT22;51343;51.396;6.656;2022-08-21T05:33:05;15.50;1.00
7894;DHT22;51343;51.396;6.656;2022-08-21T05:35:32;15.50;1.00
7894;DHT22;51343;51.396;6.656;2022-08-21T05:37:59;15.60;1.00
7894;DHT22;51343;51.396;6.656;2022-08-21T05:40:27;15.70;1.00
7894;DHT22;51343;51.396;6.656;2022-08-21T05:42:55;15.70;9.30
7894;DHT22;51343;51.396;6.656;2022-08-21T05:45:22;15.70;1.00
7894;DHT22;51343;51.396;6.656;2022-08-21T05:47:48;15.90;1.00
7894;DHT22;51343;51.396;6.656;2022-08-21T05:50:15;15.90;99.90
7894;DHT22;51343;51.396;6.656;2022-08-21T05:52:42;15.90;99.90
7894;DHT22;51343;51.396;6.656;2022-08-21T05:55:08;16.00;99.90
7894;DHT22;51343;51.396;6.656;2022-08-21T05:57:36;16.00;1.00
7894;DHT22;51343;51.396;6.656;2022-08-21T06:00:06;16.10;1.00
7894;DHT22;51343;51.396;6.656;2022-08-21T06:02:34;16.10;1.00
7894;DHT22;51343;51.396;6.656;2022-08-21T06:05:01;16.20;99.90
7894;DHT22;51343;51.396;6.656;2022-08-21T06:07:28;16.20;99.90
7894;DHT22;51343;51.396;6.656;2022-08-21T06:09:55;16.30;99.90
7894;DHT22;51343;51.396;6.656;2022-08-21T06:12:22;16.30;99.90
7894;DHT22;51343;51.396;6.656;2022-08-21T06:14:50;16.40;66.40
7894;DHT22;51343;51.396;6.656;2022-08-21T06:17:17;16.30;1.00
7894;DHT22;51343;51.396;6.656;2022-08-21T06:19:45;16.40;99.90
7894;DHT22;51343;51.396;6.656;2022-08-21T06:22:11;16.50;1.00
7894;DHT22;51343;51.396;6.656;2022-08-21T06:24:38;16.60;1.00
7894;DHT22;51343;51.396;6.656;2022-08-21T06:27:05;16.60;1.00
7894;DHT22;51343;51.396;6.656;2022-08-21T06:29:33;16.70;1.00
7894;DHT22;51343;51.396;6.656;2022-08-21T06:32:01;16.70;99.90
7894;DHT22;51343;51.396;6.656;2022-08-21T06:34:28;16.70;99.90
7894;DHT22;51343;51.396;6.656;2022-08-21T06:36:55;16.70;1.00
7894;DHT22;51343;51.396;6.656;2022-08-21T06:39:22;16.70;99.90
7894;DHT22;51343;51.396;6.656;2022-08-21T06:41:49;16.70;99.90
7894;DHT22;51343;51.396;6.656;2022-08-21T06:44:16;16.80;99.90
7894;DHT22;51343;51.396;6.656;2022-08-21T06:46:43;16.90;99.90
7894;DHT22;51343;51.396;6.656;2022-08-21T06:49:11;16.90;99.90
7894;DHT22;51343;51.396;6.656;2022-08-21T06:51:38;16.90;99.90
7894;DHT22;51343;51.396;6.656;2022-08-21T06:54:05;17.00;99.90
7894;DHT22;51343;51.396;6.656;2022-08-21T06:56:31;17.00;45.20
7894;DHT22;51343;51.396;6.656;2022-08-21T06:58:58;17.10;76.20
7894;DHT22;51343;51.396;6.656;2022-08-21T07:01:25;17.20;1.00
7894;DHT22;51343;51.396;6.656;2022-08-21T07:03:52;17.30;99.90
7894;DHT22;51343;51.396;6.656;2022-08-21T07:06:20;17.40;99.90
7894;DHT22;51343;51.396;6.656;2022-08-21T07:08:47;17.50;1.00
7894;DHT22;51343;51.396;6.656;2022-08-21T07:11:16;17.60;1.00
7894;DHT22;51343;51.396;6.656;2022-08-21T07:13:43;17.70;1.00
7894;DHT22;51343;51.396;6.656;2022-08-21T07:16:10;17.80;1.00
7894;DHT22;51343;51.396;6.656;2022-08-21T07:18:37;17.90;1.00
7894;DHT22;51343;51.396;6.656;2022-08-21T07:21:04;18.00;19.80
7894;DHT22;51343;51.396;6.656;2022-08-21T07:23:34;18.10;1.00
7894;DHT22;51343;51.396;6.656;2022-08-21T07:26:01;18.00;1.00
7894;DHT22;51343;51.396;6.656;2022-08-21T07:28:29;18.00;1.00
7894;DHT22;51343;51.396;6.656;2022-08-21T07:30:56;17.90;1.00
7894;DHT22;51343;51.396;6.656;2022-08-21T07:33:24;18.00;1.00
7894;DHT22;51343;51.396;6.656;2022-08-21T07:35:50;18.00;1.00
7894;DHT22;51343;51.396;6.656;2022-08-21T07:38:17;18.10;99.90
7894;DHT22;51343;51.396;6.656;2022-08-21T07:40:45;18.20;1.00
7894;DHT22;51343;51.396;6.656;2022-08-21T07:43:12;18.20;1.00
7894;DHT22;51343;51.396;6.656;2022-08-21T07:45:42;18.20;1.00
7894;DHT22;51343;51.396;6.656;2022-08-21T07:48:08;18.30;1.00
7894;DHT22;51343;51.396;6.656;2022-08-21T07:50:35;18.40;1.00
7894;DHT22;51343;51.396;6.656;2022-08-21T07:53:02;18.40;1.00
7894;DHT22;51343;51.396;6.656;2022-08-21T07:55:29;18.40;1.00
7894;DHT22;51343;51.396;6.656;2022-08-21T07:57:57;18.50;1.00
7894;DHT22;51343;51.396;6.656;2022-08-21T08:00:24;18.50;1.00
7894;DHT22;51343;51.396;6.656;2022-08-21T08:02:52;18.40;1.00
7894;DHT22;51343;51.396;6.656;2022-08-21T08:05:20;18.50;1.00
7894;DHT22;51343;51.396;6.656;2022-08-21T08:07:47;18.60;1.00
7894;DHT22;51343;51.396;6.656;2022-08-21T08:10:14;18.60;1.00
7894;DHT22;51343;51.396;6.656;2022-08-21T08:12:42;18.60;1.00
7894;DHT22;51343;51.396;6.656;2022-08-21T08:15:11;18.70;1.00
7894;DHT22;51343;51.396;6.656;2022-08-21T08:17:38;18.70;1.00
7894;DHT22;51343;51.396;6.656;2022-08-21T08:20:05;18.70;1.00
7894;DHT22;51343;51.396;6.656;2022-08-21T08:22:33;18.70;1.00
7894;DHT22;51343;51.396;6.656;2022-08-21T08:25:00;18.80;8.00
7894;DHT22;51343;51.396;6.656;2022-08-21T08:27:27;18.90;99.90
7894;DHT22;51343;51.396;6.656;2022-08-21T08:29:54;19.00;99.90
7894;DHT22;51343;51.396;6.656;2022-08-21T08:32:22;19.20;1.00
7894;DHT22;51343;51.396;6.656;2022-08-21T08:34:49;19.20;1.00
7894;DHT22;51343;51.396;6.656;2022-08-21T08:37:17;19.40;14.40
7894;DHT22;51343;51.396;6.656;2022-08-21T08:39:44;19.50;1.00
7894;DHT22;51343;51.396;6.656;2022-08-21T08:42:11;19.50;1.00
7894;DHT22;51343;51.396;6.656;2022-08-21T08:44:39;19.70;1.00
7894;DHT22;51343;51.396;6.656;2022-08-21T08:47:06;19.70;1.00
7894;DHT22;51343;51.396;6.656;2022-08-21T08:49:36;19.70;1.00
7894;DHT22;51343;51.396;6.656;2022-08-21T08:52:07;19.80;1.00
7894;DHT22;51343;51.396;6.656;2022-08-21T08:54:40;19.90;99.90
7894;DHT22;51343;51.396;6.656;2022-08-21T08:57:10;19.80;99.90
7894;DHT22;51343;51.396;6.656;2022-08-21T08:59:40;19.80;1.00
7894;DHT22;51343;51.396;6.656;2022-08-21T09:02:08;19.90;1.00
7894;DHT22;51343;51.396;6.656;2022-08-21T09:04:38;19.90;98.50
7894;DHT22;51343;51.396;6.656;2022-08-21T09:07:08;20.10;1.00
7894;DHT22;51343;51.396;6.656;2022-08-21T09:09:43;20.00;1.00
7894;DHT22;51343;51.396;6.656;2022-08-21T09:12:16;20.00;59.30
7894;DHT22;51343;51.396;6.656;2022-08-21T09:14:52;20.00;44.90
7894;DHT22;51343;51.396;6.656;2022-08-21T09:17:25;20.10;1.00
7894;DHT22;51343;51.396;6.656;2022-08-21T09:19:59;20.30;1.00
7894;DHT22;51343;51.396;6.656;2022-08-21T09:22:30;20.20;99.90
7894;DHT22;51343;51.396;6.656;2022-08-21T09:25:02;20.20;99.90
7894;DHT22;51343;51.396;6.656;2022-08-21T09:27:33;20.30;99.90
7894;DHT22;51343;51.396;6.656;2022-08-21T09:30:00;20.40;99.90
7894;DHT22;51343;51.396;6.656;2022-08-21T09:32:28;20.60;1.00
7894;DHT22;51343;51.396;6.656;2022-08-21T09:34:56;20.50;99.90
7894;DHT22;51343;51.396;6.656;2022-08-21T09:37:25;20.60;1.00
7894;DHT22;51343;51.396;6.656;2022-08-21T09:39:54;20.70;99.90
7894;DHT22;51343;51.396;6.656;2022-08-21T09:42:23;20.80;99.90
7894;DHT22;51343;51.396;6.656;2022-08-21T09:45:03;20.90;1.00
7894;DHT22;51343;51.396;6.656;2022-08-21T09:47:30;20.90;1.00
7894;DHT22;51343;51.396;6.656;2022-08-21T09:50:06;21.10;1.00
7894;DHT22;51343;51.396;6.656;2022-08-21T09:52:41;21.20;99.90
7894;DHT22;51343;51.396;6.656;2022-08-21T09:55:08;21.20;99.90
7894;DHT22;51343;51.396;6.656;2022-08-21T09:58:01;21.40;1.00
7894;DHT22;51343;51.396;6.656;2022-08-21T10:00:28;21.70;1.00
7894;DHT22;51343;51.396;6.656;2022-08-21T10:03:06;21.80;1.00
7894;DHT22;51343;51.396;6.656;2022-08-21T10:05:33;22.00;1.00
7894;DHT22;51343;51.396;6.656;2022-08-21T10:08:01;22.30;24.40
7894;DHT22;51343;51.396;6.656;2022-08-21T10:10:30;22.40;1.00
7894;DHT22;51343;51.396;6.656;2022-08-21T10:12:57;22.40;1.00
7894;DHT22;51343;51.396;6.656;2022-08-21T10:15:38;22.50;99.90
7894;DHT22;51343;51.396;6.656;2022-08-21T10:18:10;22.60;99.90
7894;DHT22;51343;51.396;6.656;2022-08-21T10:20:39;22.70;99.90
7894;DHT22;51343;51.396;6.656;2022-08-21T10:23:11;23.00;99.90
7894;DHT22;51343;51.396;6.656;2022-08-21T10:25:43;23.10;99.90
7894;DHT22;51343;51.396;6.656;2022-08-21T10:28:12;23.40;1.00
7894;DHT22;51343;51.396;6.656;2022-08-21T10:30:45;23.70;94.10
7894;DHT22;51343;51.396;6.656;2022-08-21T10:33:16;24.00;1.00
7894;DHT22;51343;51.396;6.656;2022-08-21T10:35:48;24.20;1.00
7894;DHT22;51343;51.396;6.656;2022-08-21T10:41:13;24.50;83.90
7894;DHT22;51343;51.396;6.656;2022-08-21T10:43:42;24.60;99.90
7894;DHT22;51343;51.396;6.656;2022-08-21T10:46:11;24.20;65.20
7894;DHT22;51343;51.396;6.656;2022-08-21T10:48:43;24.30;1.00
7894;DHT22;51343;51.396;6.656;2022-08-21T10:51:14;24.70;1.00
7894;DHT22;51343;51.396;6.656;2022-08-21T10:53:48;24.40;1.00
7894;DHT22;51343;51.396;6.656;2022-08-21T10:56:19;24.30;99.90
7894;DHT22;51343;51.396;6.656;2022-08-21T10:58:53;24.00;99.90
7894;DHT22;51343;51.396;6.656;2022-08-21T11:01:25;23.70;1.00
7894;DHT22;51343;51.396;6.656;2022-08-21T11:04:01;24.10;1.00
7894;DHT22;51343;51.396;6.656;2022-08-21T11:06:31;24.00;1.00
7894;DHT22;51343;51.396;6.656;2022-08-21T11:09:01;24.00;99.90
7894;DHT22;51343;51.396;6.656;2022-08-21T11:11:32;24.20;21.30
7894;DHT22;51343;51.396;6.656;2022-08-21T11:14:01;24.20;99.90
7894;DHT22;51343;51.396;6.656;2022-08-21T11:16:31;23.90;1.00
7894;DHT22;51343;51.396;6.656;2022-08-21T11:19:00;24.50;1.00
7894;DHT22;51343;51.396;6.656;2022-08-21T11:21:33;24.60;1.00
7894;DHT22;51343;51.396;6.656;2022-08-21T11:24:03;24.90;1.00
7894;DHT22;51343;51.396;6.656;2022-08-21T11:26:38;25.30;99.90
7894;DHT22;51343;51.396;6.656;2022-08-21T11:29:09;25.20;1.00
7894;DHT22;51343;51.396;6.656;2022-08-21T11:31:41;25.30;1.00
7894;DHT22;51343;51.396;6.656;2022-08-21T11:34:14;25.60;1.00
7894;DHT22;51343;51.396;6.656;2022-08-21T11:36:45;26.00;37.80
7894;DHT22;51343;51.396;6.656;2022-08-21T11:39:16;26.20;1.00
7894;DHT22;51343;51.396;6.656;2022-08-21T11:41:51;26.50;99.90
7894;DHT22;51343;51.396;6.656;2022-08-21T11:44:23;25.90;1.00
7894;DHT22;51343;51.396;6.656;2022-08-21T11:46:53;26.20;3.00
7894;DHT22;51343;51.396;6.656;2022-08-21T11:49:28;26.60;99.90
7894;DHT22;51343;51.396;6.656;2022-08-21T11:52:02;27.10;1.00
7894;DHT22;51343;51.396;6.656;2022-08-21T11:54:34;27.30;99.90
7894;DHT22;51343;51.396;6.656;2022-08-21T11:57:03;27.20;1.00
7894;DHT22;51343;51.396;6.656;2022-08-21T11:59:36;26.80;1.00
7894;DHT22;51343;51.396;6.656;2022-08-21T12:02:06;26.30;1.00
7894;DHT22;51343;51.396;6.656;2022-08-21T12:04:35;26.00;1.00
7894;DHT22;51343;51.396;6.656;2022-08-21T12:07:10;26.30;1.00
7894;DHT22;51343;51.396;6.656;2022-08-21T12:09:36;25.60;1.00
7894;DHT22;51343;51.396;6.656;2022-08-21T12:12:09;26.10;30.10
7894;DHT22;51343;51.396;6.656;2022-08-21T12:14:37;26.40;1.00
7894;DHT22;51343;51.396;6.656;2022-08-21T12:17:05;26.50;1.00
7894;DHT22;51343;51.396;6.656;2022-08-21T12:19:32;26.60;1.00
7894;DHT22;51343;51.396;6.656;2022-08-21T12:22:07;26.60;1.00
7894;DHT22;51343;51.396;6.656;2022-08-21T12:24:36;26.40;1.00
7894;DHT22;51343;51.396;6.656;2022-08-21T12:27:17;27.00;1.00
7894;DHT22;51343;51.396;6.656;2022-08-21T12:29:47;27.90;1.00
7894;DHT22;51343;51.396;6.656;2022-08-21T12:32:23;27.50;1.00
7894;DHT22;51343;51.396;6.656;2022-08-21T12:34:52;26.60;1.00
7894;DHT22;51343;51.396;6.656;2022-08-21T12:37:20;26.50;1.00
7894;DHT22;51343;51.396;6.656;2022-08-21T12:39:48;26.60;1.00
7894;DHT22;51343;51.396;6.656;2022-08-21T12:42:17;26.50;1.00
7894;DHT22;51343;51.396;6.656;2022-08-21T12:44:45;26.20;1.00
7894;DHT22;51343;51.396;6.656;2022-08-21T12:47:14;26.70;1.00
7894;DHT22;51343;51.396;6.656;2022-08-21T12:49:43;26.30;76.60
7894;DHT22;51343;51.396;6.656;2022-08-21T12:52:14;25.80;99.90
7894;DHT22;51343;51.396;6.656;2022-08-21T12:54:43;25.70;80.40
7894;DHT22;51343;51.396;6.656;2022-08-21T12:57:19;25.90;71.30
7894;DHT22;51343;51.396;6.656;2022-08-21T12:59:46;26.20;99.90
7894;DHT22;51343;51.396;6.656;2022-08-21T13:02:17;25.50;99.90
7894;DHT22;51343;51.396;6.656;2022-08-21T13:04:45;26.00;99.90
7894;DHT22;51343;51.396;6.656;2022-08-21T13:07:14;26.60;99.90
7894;DHT22;51343;51.396;6.656;2022-08-21T13:09:42;27.50;99.90
7894;DHT22;51343;51.396;6.656;2022-08-21T13:12:10;28.50;99.90
7894;DHT22;51343;51.396;6.656;2022-08-21T13:14:39;29.20;99.90
7894;DHT22;51343;51.396;6.656;2022-08-21T13:17:07;29.20;99.90
7894;DHT22;51343;51.396;6.656;2022-08-21T13:19:34;29.70;99.90
7894;DHT22;51343;51.396;6.656;2022-08-21T13:22:00;29.00;99.90
7894;DHT22;51343;51.396;6.656;2022-08-21T13:24:28;29.70;99.90
7894;DHT22;51343;51.396;6.656;2022-08-21T13:26:56;30.20;99.90
7894;DHT22;51343;51.396;6.656;2022-08-21T13:29:26;30.10;99.90
7894;DHT22;51343;51.396;6.656;2022-08-21T13:32:01;28.90;99.90
7894;DHT22;51343;51.396;6.656;2022-08-21T13:34:29;28.60;99.90
7894;DHT22;51343;51.396;6.656;2022-08-21T13:36:58;28.30;44.50
7894;DHT22;51343;51.396;6.656;2022-08-21T13:39:25;28.60;1.00
7894;DHT22;51343;51.396;6.656;2022-08-21T13:41:54;29.50;99.90
7894;DHT22;51343;51.396;6.656;2022-08-21T13:44:23;29.30;99.90
7894;DHT22;51343;51.396;6.656;2022-08-21T13:46:52;28.70;1.00
7894;DHT22;51343;51.396;6.656;2022-08-21T13:49:23;28.60;1.00
7894;DHT22;51343;51.396;6.656;2022-08-21T13:51:53;28.80;99.90
7894;DHT22;51343;51.396;6.656;2022-08-21T13:54:22;28.90;99.90
7894;DHT22;51343;51.396;6.656;2022-08-21T13:56:49;28.70;1.00
7894;DHT22;51343;51.396;6.656;2022-08-21T13:59:23;28.50;99.90
7894;DHT22;51343;51.396;6.656;2022-08-21T14:01:51;27.50;1.00
7894;DHT22;51343;51.396;6.656;2022-08-21T14:04:22;27.20;99.90
7894;DHT22;51343;51.396;6.656;2022-08-21T14:06:50;27.10;99.90
7894;DHT22;51343;51.396;6.656;2022-08-21T14:09:21;26.40;99.90
7894;DHT22;51343;51.396;6.656;2022-08-21T14:11:50;26.40;99.90
7894;DHT22;51343;51.396;6.656;2022-08-21T14:14:20;27.00;99.90
7894;DHT22;51343;51.396;6.656;2022-08-21T14:16:53;28.00;99.90
7894;DHT22;51343;51.396;6.656;2022-08-21T14:19:22;28.50;99.90
7894;DHT22;51343;51.396;6.656;2022-08-21T14:21:49;28.20;99.90
7894;DHT22;51343;51.396;6.656;2022-08-21T14:24:24;28.40;1.00
7894;DHT22;51343;51.396;6.656;2022-08-21T14:26:54;29.00;1.00
7894;DHT22;51343;51.396;6.656;2022-08-21T14:29:21;29.30;1.00
7894;DHT22;51343;51.396;6.656;2022-08-21T14:31:52;29.60;1.00
7894;DHT22;51343;51.396;6.656;2022-08-21T14:34:19;29.30;1.00
7894;DHT22;51343;51.396;6.656;2022-08-21T14:36:48;28.20;1.00
7894;DHT22;51343;51.396;6.656;2022-08-21T14:39:15;27.60;1.00
7894;DHT22;51343;51.396;6.656;2022-08-21T14:41:43;27.80;1.00
7894;DHT22;51343;51.396;6.656;2022-08-21T14:44:11;28.30;1.00
7894;DHT22;51343;51.396;6.656;2022-08-21T14:46:38;29.10;99.90
7894;DHT22;51343;51.396;6.656;2022-08-21T14:49:04;29.20;1.00
7894;DHT22;51343;51.396;6.656;2022-08-21T14:51:31;28.60;1.00
7894;DHT22;51343;51.396;6.656;2022-08-21T14:53:59;29.00;1.00
7894;DHT22;51343;51.396;6.656;2022-08-21T14:56:26;28.50;1.00
7894;DHT22;51343;51.396;6.656;2022-08-21T14:58:52;28.40;1.00
7894;DHT22;51343;51.396;6.656;2022-08-21T15:01:21;27.70;99.90
7894;DHT22;51343;51.396;6.656;2022-08-21T15:03:48;27.70;99.90
7894;DHT22;51343;51.396;6.656;2022-08-21T15:06:15;27.40;1.00
7894;DHT22;51343;51.396;6.656;2022-08-21T15:08:42;27.90;99.90
7894;DHT22;51343;51.396;6.656;2022-08-21T15:11:12;28.10;99.90
7894;DHT22;51343;51.396;6.656;2022-08-21T15:13:42;28.30;99.90
7894;DHT22;51343;51.396;6.656;2022-08-21T15:16:09;28.80;99.90
7894;DHT22;51343;51.396;6.656;2022-08-21T15:18:36;29.10;99.90
7894;DHT22;51343;51.396;6.656;2022-08-21T15:21:03;29.20;99.90
7894;DHT22;51343;51.396;6.656;2022-08-21T15:23:30;29.30;1.00
7894;DHT22;51343;51.396;6.656;2022-08-21T15:25:57;28.80;1.00
7894;DHT22;51343;51.396;6.656;2022-08-21T15:28:25;28.20;99.90
7894;DHT22;51343;51.396;6.656;2022-08-21T15:30:52;28.00;99.90
7894;DHT22;51343;51.396;6.656;2022-08-21T15:33:18;27.90;99.90
7894;DHT22;51343;51.396;6.656;2022-08-21T15:35:46;27.70;99.90
7894;DHT22;51343;51.396;6.656;2022-08-21T15:38:14;27.60;99.90
7894;DHT22;51343;51.396;6.656;2022-08-21T15:40:41;27.40;99.90
7894;DHT22;51343;51.396;6.656;2022-08-21T15:43:10;27.10;99.90
7894;DHT22;51343;51.396;6.656;2022-08-21T15:45:39;27.20;99.90
7894;DHT22;51343;51.396;6.656;2022-08-21T15:48:06;26.90;99.90
7894;DHT22;51343;51.396;6.656;2022-08-21T15:50:32;26.40;99.90
7894;DHT22;51343;51.396;6.656;2022-08-21T15:52:59;26.30;99.90
7894;DHT22;51343;51.396;6.656;2022-08-21T15:55:26;26.20;99.90
7894;DHT22;51343;51.396;6.656;2022-08-21T15:57:52;26.40;99.90
7894;DHT22;51343;51.396;6.656;2022-08-21T16:00:21;26.20;99.90
7894;DHT22;51343;51.396;6.656;2022-08-21T16:02:50;26.30;99.90
7894;DHT22;51343;51.396;6.656;2022-08-21T16:05:18;26.20;99.90
7894;DHT22;51343;51.396;6.656;2022-08-21T16:07:45;26.10;1.00
7894;DHT22;51343;51.396;6.656;2022-08-21T16:10:12;25.90;99.90
7894;DHT22;51343;51.396;6.656;2022-08-21T16:12:41;25.80;99.90
7894;DHT22;51343;51.396;6.656;2022-08-21T16:15:09;25.80;99.90
7894;DHT22;51343;51.396;6.656;2022-08-21T16:17:37;25.60;99.90
7894;DHT22;51343;51.396;6.656;2022-08-21T16:20:08;25.50;99.90
7894;DHT22;51343;51.396;6.656;2022-08-21T16:22:36;25.40;99.90
7894;DHT22;51343;51.396;6.656;2022-08-21T16:25:03;25.40;99.90
7894;DHT22;51343;51.396;6.656;2022-08-21T16:27:30;25.30;99.90
7894;DHT22;51343;51.396;6.656;2022-08-21T16:29:57;25.20;99.90
7894;DHT22;51343;51.396;6.656;2022-08-21T16:32:23;25.20;99.90
7894;DHT22;51343;51.396;6.656;2022-08-21T16:34:50;25.20;99.90
7894;DHT22;51343;51.396;6.656;2022-08-21T16:37:18;25.30;99.90
7894;DHT22;51343;51.396;6.656;2022-08-21T16:39:46;25.20;99.90
7894;DHT22;51343;51.396;6.656;2022-08-21T16:42:14;25.10;99.90
7894;DHT22;51343;51.396;6.656;2022-08-21T16:44:44;25.10;99.90
7894;DHT22;51343;51.396;6.656;2022-08-21T16:47:11;25.10;99.90
7894;DHT22;51343;51.396;6.656;2022-08-21T16:49:38;25.00;99.90
7894;DHT22;51343;51.396;6.656;2022-08-21T16:52:05;25.10;99.90
7894;DHT22;51343;51.396;6.656;2022-08-21T16:54:32;24.90;99.90
7894;DHT22;51343;51.396;6.656;2022-08-21T16:56:59;24.80;99.90
7894;DHT22;51343;51.396;6.656;2022-08-21T16:59:26;24.80;99.90
7894;DHT22;51343;51.396;6.656;2022-08-21T17:01:53;24.80;99.90